createdAt,value
2022-09-17T00:00:48.007Z,100.00
2022-09-17T00:05:49.525Z,100.00
2022-09-17T00:10:51.019Z,100.00
2022-09-17T00:15:52.606Z,100.00
2022-09-17T00:20:54.389Z,100.00
2022-09-17T00:25:55.873Z,100.00
2022-09-17T00:30:57.379Z,100.00
2022-09-17T00:36:00.940Z,100.00
2022-09-17T00:41:03.742Z,100.00
2022-09-17T00:46:16.209Z,100.00
2022-09-17T00:51:21.352Z,100.00
2022-09-17T00:56:27.125Z,100.00
2022-09-17T01:01:29.132Z,100.00
2022-09-17T01:06:48.553Z,100.00
2022-09-17T01:11:59.315Z,100.00
2022-09-17T01:17:17.256Z,100.00
2022-09-17T01:22:33.192Z,100.00
2022-09-17T01:27:37.700Z,100.00
2022-09-17T01:32:47.000Z,100.00
2022-09-17T01:38:07.683Z,100.00
2022-09-17T01:43:19.865Z,100.00
2022-09-17T01:48:35.904Z,100.00
2022-09-17T01:54:05.516Z,100.00
2022-09-17T01:59:19.615Z,100.00
2022-09-17T02:04:29.425Z,100.00
2022-09-17T02:09:36.833Z,100.00
2022-09-17T02:14:44.910Z,100.00
2022-09-17T02:19:46.489Z,100.00
2022-09-17T02:25:22.112Z,100.00
2022-09-17T02:30:23.664Z,100.00
2022-09-17T02:35:25.531Z,100.00
2022-09-17T02:40:31.664Z,100.00
2022-09-17T02:45:53.415Z,100.00
2022-09-17T02:51:18.263Z,100.00
2022-09-17T02:56:42.972Z,100.00
2022-09-17T03:02:00.938Z,100.00
2022-09-17T03:07:10.962Z,100.00
2022-09-17T03:12:12.520Z,100.00
2022-09-17T03:17:14.043Z,100.00
2022-09-17T03:22:15.637Z,100.00
2022-09-17T03:27:17.269Z,100.00
2022-09-17T03:32:18.791Z,100.00
2022-09-17T03:37:20.601Z,100.00
2022-09-17T03:42:22.089Z,100.00
2022-09-17T03:47:23.580Z,100.00
2022-09-17T03:52:25.117Z,100.00
2022-09-17T03:57:26.893Z,100.00
2022-09-17T04:02:28.442Z,100.00
2022-09-17T04:07:30.083Z,100.00
2022-09-17T04:12:31.720Z,100.00
2022-09-17T04:17:33.220Z,100.00
2022-09-17T04:22:34.727Z,100.00
2022-09-17T04:27:36.258Z,100.00
2022-09-17T04:32:37.865Z,100.00
2022-09-17T04:37:40.467Z,100.00
2022-09-17T04:42:41.992Z,100.00
2022-09-17T04:47:43.584Z,100.00
2022-09-17T04:52:46.409Z,100.00
2022-09-17T04:57:52.887Z,100.00
2022-09-17T05:02:55.273Z,100.00
2022-09-17T05:07:56.757Z,100.00
2022-09-17T05:12:58.426Z,100.00
2022-09-17T05:17:59.943Z,100.00
2022-09-17T05:23:01.450Z,100.00
2022-09-17T05:28:03.124Z,100.00
2022-09-17T05:33:06.344Z,100.00
2022-09-17T05:38:07.867Z,100.00
2022-09-17T05:43:10.104Z,100.00
2022-09-17T05:48:13.996Z,100.00
2022-09-17T05:53:15.499Z,100.00
2022-09-17T05:58:19.363Z,100.00
2022-09-17T06:03:21.463Z,100.00
2022-09-17T06:08:23.148Z,100.00
2022-09-17T06:13:24.715Z,100.00
2022-09-17T06:18:27.676Z,100.00
2022-09-17T06:23:32.705Z,100.00
2022-09-17T06:28:37.872Z,100.00
2022-09-17T06:33:42.206Z,100.00
2022-09-17T06:38:43.744Z,100.00
2022-09-17T06:43:45.272Z,100.00
2022-09-17T06:48:46.814Z,100.00
2022-09-17T06:53:48.573Z,100.00
2022-09-17T06:58:50.116Z,100.00
2022-09-17T07:03:51.657Z,100.00
2022-09-17T07:08:53.192Z,100.00
2022-09-17T07:13:54.730Z,100.00
2022-09-17T07:18:56.200Z,100.00
2022-09-17T07:23:57.861Z,100.00
2022-09-17T07:28:59.488Z,100.00
2022-09-17T07:34:01.015Z,100.00
2022-09-17T07:39:02.605Z,100.00
2022-09-17T07:44:04.107Z,100.00
2022-09-17T07:49:05.586Z,100.00
2022-09-17T07:54:07.201Z,100.00
2022-09-17T07:59:09.751Z,100.00
2022-09-17T08:04:11.408Z,100.00
2022-09-17T08:09:13.041Z,100.00
2022-09-17T08:14:15.590Z,92.12
2022-09-17T08:19:17.121Z,89.76
2022-09-17T08:24:18.656Z,86.82
2022-09-17T08:29:20.241Z,82.86
2022-09-17T08:34:21.840Z,83.81
2022-09-17T08:39:23.355Z,87.94
2022-09-17T08:44:27.471Z,91.63
2022-09-17T08:49:32.082Z,88.99
2022-09-17T08:55:06.264Z,84.56
2022-09-17T09:00:12.565Z,82.51
2022-09-17T09:05:18.296Z,80.88
2022-09-17T09:10:42.183Z,78.43
2022-09-17T09:15:47.678Z,76.24
2022-09-17T09:21:20.795Z,73.54
2022-09-17T09:27:07.318Z,75.43
2022-09-17T09:32:32.205Z,68.68
2022-09-17T09:37:39.102Z,70.54
2022-09-17T09:42:40.649Z,67.33
2022-09-17T09:48:00.210Z,73.78
2022-09-17T09:53:47.968Z,79.46
2022-09-17T09:58:49.520Z,72.50
2022-09-17T10:03:52.531Z,71.89
2022-09-17T10:08:57.210Z,67.88
2022-09-17T10:14:14.969Z,65.06
2022-09-17T10:19:21.196Z,62.47
2022-09-17T10:24:27.074Z,68.30
2022-09-17T10:29:28.815Z,70.35
2022-09-17T10:34:32.569Z,67.16
2022-09-17T10:39:37.953Z,59.27
2022-09-17T10:44:51.413Z,59.73
2022-09-17T10:49:59.737Z,57.03
2022-09-17T10:55:18.910Z,56.11
2022-09-17T11:00:22.503Z,61.01
2022-09-17T11:05:54.810Z,58.55
2022-09-17T11:11:16.577Z,55.36
2022-09-17T11:16:34.142Z,67.75
2022-09-17T11:22:05.217Z,66.46
2022-09-17T11:27:34.177Z,61.56
2022-09-17T11:32:38.498Z,62.25
2022-09-17T11:37:44.517Z,55.57
2022-09-17T11:42:56.122Z,56.47
2022-09-17T11:48:11.853Z,56.52
2022-09-17T11:53:32.379Z,56.51
2022-09-17T11:58:39.991Z,91.60
2022-09-17T12:03:49.382Z,100.00
2022-09-17T12:09:01.671Z,100.00
2022-09-17T12:14:34.188Z,100.00
2022-09-17T12:19:51.531Z,100.00
2022-09-17T12:24:54.379Z,100.00
2022-09-17T12:30:08.681Z,100.00
2022-09-17T12:35:46.670Z,100.00
2022-09-17T12:41:04.020Z,100.00
2022-09-17T12:46:17.687Z,100.00
2022-09-17T12:51:54.889Z,100.00
2022-09-17T12:57:05.518Z,100.00
2022-09-17T13:02:34.038Z,100.00
2022-09-17T13:08:20.896Z,100.00
2022-09-17T13:13:49.011Z,100.00
2022-09-17T13:19:27.925Z,100.00
2022-09-17T13:24:30.971Z,100.00
2022-09-17T13:30:01.823Z,100.00
2022-09-17T13:35:15.279Z,100.00
2022-09-17T13:40:34.070Z,100.00
2022-09-17T13:45:58.739Z,100.00
2022-09-17T13:51:31.439Z,100.00
2022-09-17T13:56:38.388Z,100.00
2022-09-17T14:01:49.046Z,100.00
2022-09-17T14:06:51.712Z,100.00
2022-09-17T14:11:53.357Z,100.00
2022-09-17T14:16:57.456Z,100.00
2022-09-17T14:22:24.903Z,100.00
2022-09-17T14:27:51.635Z,100.00
2022-09-17T14:32:56.047Z,100.00
2022-09-17T14:38:16.839Z,100.00
2022-09-17T14:43:35.551Z,100.00
2022-09-17T14:48:40.034Z,100.00
2022-09-17T14:53:41.588Z,100.00
2022-09-17T14:58:52.674Z,100.00
2022-09-17T15:04:12.699Z,100.00
2022-09-17T15:09:25.701Z,100.00
2022-09-17T15:14:30.476Z,100.00
2022-09-17T15:19:36.387Z,100.00
2022-09-17T15:24:47.771Z,100.00
2022-09-17T15:30:06.441Z,100.00
2022-09-17T15:35:14.328Z,100.00
2022-09-17T15:40:34.017Z,100.00
2022-09-17T15:45:35.726Z,100.00
2022-09-17T15:50:53.753Z,100.00
2022-09-17T15:56:06.255Z,100.00
2022-09-17T16:01:16.993Z,100.00
2022-09-17T16:06:18.618Z,100.00
2022-09-17T16:11:22.406Z,100.00
2022-09-17T16:16:29.104Z,100.00
2022-09-17T16:21:30.732Z,100.00
2022-09-17T16:26:34.990Z,100.00
2022-09-17T16:31:36.544Z,100.00
2022-09-17T16:36:38.189Z,100.00
2022-09-17T16:41:39.759Z,100.00
2022-09-17T16:46:41.663Z,100.00
2022-09-17T16:51:43.265Z,100.00
2022-09-17T16:56:44.840Z,100.00
2022-09-17T17:01:46.421Z,100.00
2022-09-17T17:06:47.915Z,100.00
2022-09-17T17:11:49.436Z,100.00
2022-09-17T17:16:51.019Z,100.00
2022-09-17T17:21:53.349Z,100.00
2022-09-17T17:26:54.841Z,100.00
2022-09-17T17:31:56.319Z,100.00
2022-09-17T17:36:58.835Z,100.00
2022-09-17T17:42:00.427Z,100.00
2022-09-17T17:47:01.947Z,100.00
2022-09-17T17:52:03.501Z,100.00
2022-09-17T17:57:05.076Z,100.00
2022-09-17T18:02:06.964Z,100.00
2022-09-17T18:07:08.623Z,100.00
2022-09-17T18:12:10.169Z,100.00
2022-09-17T18:17:11.653Z,100.00
2022-09-17T18:22:13.204Z,100.00
2022-09-17T18:27:14.778Z,100.00
2022-09-17T18:32:16.261Z,100.00
2022-09-17T18:37:17.781Z,100.00
2022-09-17T18:42:19.307Z,100.00
2022-09-17T18:47:20.805Z,100.00
2022-09-17T18:52:22.323Z,100.00
2022-09-17T18:57:23.828Z,100.00
2022-09-17T19:02:25.523Z,100.00
2022-09-17T19:07:27.354Z,100.00
2022-09-17T19:12:30.117Z,100.00
2022-09-17T19:17:31.667Z,100.00
2022-09-17T19:22:33.147Z,100.00
2022-09-17T19:27:34.683Z,100.00
2022-09-17T19:32:36.287Z,100.00
2022-09-17T19:37:37.781Z,100.00
2022-09-17T19:42:39.267Z,100.00
2022-09-17T19:47:40.779Z,100.00
2022-09-17T19:52:42.338Z,100.00
2022-09-17T19:57:43.849Z,100.00
2022-09-17T20:02:45.446Z,100.00
2022-09-17T20:07:46.932Z,100.00
2022-09-17T20:12:48.452Z,100.00
2022-09-17T20:17:49.976Z,100.00
2022-09-17T20:22:51.553Z,100.00
2022-09-17T20:27:53.297Z,100.00
2022-09-17T20:32:55.196Z,100.00
2022-09-17T20:43:18.257Z,100.00
2022-09-17T20:48:20.124Z,100.00
2022-09-17T20:53:21.623Z,100.00
2022-09-17T20:58:24.116Z,100.00
2022-09-17T21:03:25.592Z,100.00
2022-09-17T21:08:28.024Z,100.00
2022-09-17T21:13:29.534Z,100.00
2022-09-17T21:18:34.178Z,100.00
2022-09-17T21:23:39.346Z,100.00
2022-09-17T21:28:42.452Z,100.00
2022-09-17T21:33:45.110Z,100.00
2022-09-17T21:38:51.173Z,100.00
2022-09-17T21:43:53.004Z,100.00
2022-09-17T21:48:56.929Z,100.00
2022-09-17T21:54:01.859Z,100.00
2022-09-17T21:59:08.755Z,100.00
2022-09-17T22:04:12.292Z,100.00
2022-09-17T22:09:20.063Z,100.00
2022-09-17T22:14:23.648Z,100.00
2022-09-17T22:19:26.007Z,100.00
2022-09-17T22:24:27.744Z,100.00
2022-09-17T22:29:29.228Z,100.00
2022-09-17T22:34:30.730Z,100.00
2022-09-17T22:39:32.290Z,100.00
2022-09-17T22:44:33.809Z,100.00
2022-09-17T22:49:35.309Z,100.00
2022-09-17T22:54:36.770Z,100.00
2022-09-17T22:59:38.332Z,100.00
2022-09-17T23:04:39.822Z,100.00
2022-09-17T23:09:41.327Z,100.00
2022-09-17T23:14:42.822Z,100.00
2022-09-17T23:19:44.310Z,100.00
2022-09-17T23:24:45.882Z,100.00
2022-09-17T23:29:47.340Z,100.00
2022-09-17T23:34:48.825Z,100.00
2022-09-17T23:39:50.317Z,100.00
2022-09-17T23:44:51.862Z,100.00
2022-09-17T23:49:53.404Z,100.00
2022-09-17T23:54:58.289Z,100.00
